createdAt,value
2022-11-09T00:00:05.808Z,2.5
2022-11-09T00:02:39.234Z,2.5
2022-11-09T00:05:03.492Z,2.7
2022-11-09T00:07:34.081Z,2.7
2022-11-09T00:10:14.677Z,2.7
2022-11-09T00:12:45.269Z,2.7
2022-11-09T00:15:25.862Z,2.6
2022-11-09T00:20:26.622Z,3.0
2022-11-09T00:22:58.502Z,3.2
2022-11-09T00:25:19.565Z,3.4
2022-11-09T00:27:50.140Z,3.4
2022-11-09T00:30:40.760Z,3.4
2022-11-09T00:33:11.353Z,3.4
2022-11-09T00:35:42.371Z,3.5
2022-11-09T00:38:12.973Z,3.4
2022-11-09T00:40:43.569Z,3.5
2022-11-09T00:43:14.162Z,3.7
2022-11-09T00:45:54.850Z,3.8
2022-11-09T00:48:25.651Z,3.8
2022-11-09T00:50:56.268Z,3.9
2022-11-09T00:53:26.875Z,3.9
2022-11-09T00:55:57.485Z,4.1
2022-11-09T01:01:08.328Z,4.1
2022-11-09T01:03:39.119Z,4.2
2022-11-09T01:06:09.703Z,4.1
2022-11-09T01:08:40.396Z,3.5
2022-11-09T01:11:10.995Z,3.3
2022-11-09T01:13:51.633Z,3.2
2022-11-09T01:16:22.217Z,3.1
2022-11-09T01:18:52.803Z,3.1
2022-11-09T01:21:23.658Z,3.1
2022-11-09T01:23:54.248Z,3.2
2022-11-09T01:26:24.843Z,3.2
2022-11-09T01:29:05.423Z,3.4
2022-11-09T01:31:36.025Z,3.4
2022-11-09T01:34:06.626Z,3.3
2022-11-09T01:36:37.238Z,3.2
2022-11-09T01:41:37.980Z,3.1
2022-11-09T01:44:18.581Z,3.1
2022-11-09T01:46:49.188Z,3.1
2022-11-09T01:49:19.778Z,3.1
2022-11-09T01:51:50.381Z,3.1
2022-11-09T01:54:20.972Z,3.2
2022-11-09T01:57:01.581Z,3.2
2022-11-09T01:59:32.187Z,3.1
2022-11-09T02:02:02.801Z,3.1
2022-11-09T02:04:33.367Z,2.9
2022-11-09T02:07:03.992Z,2.7
2022-11-09T02:09:34.666Z,2.8
2022-11-09T02:12:15.279Z,2.8
2022-11-09T02:14:45.869Z,2.8
2022-11-09T02:17:16.461Z,2.8
2022-11-09T02:22:17.197Z,2.7
2022-11-09T02:24:47.799Z,2.9
2022-11-09T02:27:28.380Z,3.0
2022-11-09T02:29:58.953Z,3.0
2022-11-09T02:32:29.557Z,3.1
2022-11-09T02:35:00.172Z,3.1
2022-11-09T02:37:30.767Z,3.1
2022-11-09T02:40:01.378Z,3.2
2022-11-09T02:42:42.010Z,3.3
2022-11-09T02:45:12.612Z,3.3
2022-11-09T02:47:43.205Z,3.1
2022-11-09T02:50:13.811Z,3.1
2022-11-09T02:52:44.388Z,3.0
2022-11-09T02:55:25.014Z,3.0
2022-11-09T02:58:05.636Z,3.0
2022-11-09T03:03:06.338Z,3.1
2022-11-09T03:05:37.169Z,3.1
2022-11-09T03:08:07.764Z,3.2
2022-11-09T03:10:48.387Z,3.4
2022-11-09T03:13:19.145Z,3.5
2022-11-09T03:15:49.944Z,3.5
2022-11-09T03:18:20.527Z,3.4
2022-11-09T03:20:51.126Z,3.3
2022-11-09T03:23:21.916Z,3.2
2022-11-09T03:26:02.704Z,3.1
2022-11-09T03:28:33.286Z,3.0
2022-11-09T03:31:03.850Z,2.9
2022-11-09T03:33:34.462Z,2.9
2022-11-09T03:36:05.071Z,2.9
2022-11-09T03:38:35.700Z,2.9
2022-11-09T03:43:46.461Z,2.8
2022-11-09T03:46:17.071Z,2.7
2022-11-09T03:48:47.662Z,2.7
2022-11-09T03:51:18.261Z,2.7
2022-11-09T03:53:48.840Z,2.9
2022-11-09T03:56:29.458Z,3.0
2022-11-09T03:59:00.037Z,3.1
2022-11-09T04:01:30.685Z,3.1
2022-11-09T04:04:01.463Z,3.1
2022-11-09T04:06:32.117Z,3.0
2022-11-09T04:09:03.155Z,3.0
2022-11-09T04:11:43.772Z,3.0
2022-11-09T04:14:14.371Z,3.1
2022-11-09T04:16:44.956Z,3.2
2022-11-09T04:19:15.565Z,3.3
2022-11-09T04:24:16.312Z,3.4
2022-11-09T04:26:56.915Z,3.3
2022-11-09T04:29:27.475Z,3.3
2022-11-09T04:31:58.090Z,3.2
2022-11-09T04:34:28.762Z,3.1
2022-11-09T04:36:59.394Z,3.1
2022-11-09T04:39:40.019Z,2.9
2022-11-09T04:42:10.612Z,2.8
2022-11-09T04:44:41.211Z,2.7
2022-11-09T04:47:11.817Z,2.6
2022-11-09T04:49:42.479Z,2.5
2022-11-09T04:52:13.060Z,2.4
2022-11-09T04:54:53.642Z,2.4
2022-11-09T04:57:24.231Z,2.4
2022-11-09T04:59:54.827Z,2.3
2022-11-09T05:04:55.590Z,2.3
2022-11-09T05:07:26.182Z,2.5
2022-11-09T05:10:16.812Z,2.5
2022-11-09T05:12:47.402Z,2.5
2022-11-09T05:15:18.026Z,2.4
2022-11-09T05:17:48.607Z,2.4
2022-11-09T05:20:19.197Z,2.3
2022-11-09T05:22:49.787Z,2.3
2022-11-09T05:25:30.398Z,2.4
2022-11-09T05:28:01.002Z,2.3
2022-11-09T05:30:31.592Z,2.4
2022-11-09T05:33:02.198Z,2.4
2022-11-09T05:35:33.349Z,2.5
2022-11-09T05:38:03.958Z,2.5
2022-11-09T05:40:44.555Z,2.6
2022-11-09T05:45:45.302Z,2.7
2022-11-09T05:48:17.149Z,2.8
2022-11-09T05:50:47.747Z,2.8
2022-11-09T05:53:18.590Z,2.8
2022-11-09T05:55:53.959Z,2.9
2022-11-09T05:58:24.562Z,2.8
2022-11-09T06:00:55.169Z,2.9
2022-11-09T06:03:25.758Z,2.8
2022-11-09T06:05:56.371Z,2.8
2022-11-09T06:08:39.250Z,2.8
2022-11-09T06:11:09.843Z,2.8
2022-11-09T06:13:44.415Z,2.8
2022-11-09T06:16:15.033Z,2.9
2022-11-09T06:18:45.603Z,2.8
2022-11-09T06:21:16.218Z,2.8
2022-11-09T06:26:26.989Z,2.8
2022-11-09T06:28:57.573Z,2.9
2022-11-09T06:31:28.202Z,2.9
2022-11-09T06:33:58.796Z,3.0
2022-11-09T06:36:29.391Z,3.1
2022-11-09T06:39:10.009Z,3.0
2022-11-09T06:41:44.659Z,3.1
2022-11-09T06:44:06.951Z,3.1
2022-11-09T06:46:37.560Z,3.2
2022-11-09T06:49:08.170Z,3.2
2022-11-09T06:51:38.777Z,3.2
2022-11-09T06:54:19.364Z,3.1
2022-11-09T06:56:49.953Z,3.2
2022-11-09T06:59:20.545Z,3.3
2022-11-09T07:01:51.175Z,3.4
2022-11-09T07:07:12.542Z,3.5
2022-11-09T07:09:38.441Z,3.5
2022-11-09T07:12:09.068Z,3.4
2022-11-09T07:14:39.659Z,3.4
2022-11-09T07:17:10.252Z,3.4
2022-11-09T07:19:40.850Z,3.5
2022-11-09T07:22:21.454Z,3.5
2022-11-09T07:24:52.069Z,3.6
2022-11-09T07:27:27.460Z,3.7
2022-11-09T07:29:58.469Z,3.7
2022-11-09T07:32:54.053Z,3.9
2022-11-09T07:34:57.820Z,3.9
2022-11-09T07:37:39.441Z,4.0
2022-11-09T07:40:10.044Z,4.1
2022-11-09T07:42:40.832Z,4.2
2022-11-09T07:47:41.576Z,4.3
2022-11-09T07:50:12.226Z,4.3
2022-11-09T07:52:52.815Z,4.4
2022-11-09T07:55:23.410Z,4.5
2022-11-09T07:57:53.990Z,4.7
2022-11-09T08:00:24.596Z,4.7
2022-11-09T08:02:55.212Z,4.9
2022-11-09T08:05:35.832Z,4.9
2022-11-09T08:08:06.452Z,4.9
2022-11-09T08:10:37.100Z,5.1
2022-11-09T08:13:07.677Z,5.1
2022-11-09T08:15:38.537Z,5.2
2022-11-09T08:18:09.105Z,5.2
2022-11-09T08:20:50.333Z,5.2
2022-11-09T08:23:21.061Z,5.3
2022-11-09T08:28:22.767Z,5.3
2022-11-09T08:30:53.541Z,5.4
2022-11-09T08:33:24.109Z,5.5
2022-11-09T08:36:04.730Z,5.6
2022-11-09T08:38:35.323Z,5.6
2022-11-09T08:41:09.327Z,5.8
2022-11-09T08:43:32.612Z,5.8
2022-11-09T08:46:03.212Z,5.9
2022-11-09T08:48:33.811Z,6.0
2022-11-09T08:51:14.418Z,6.1
2022-11-09T08:53:44.997Z,6.2
2022-11-09T08:56:25.622Z,6.2
2022-11-09T08:58:56.216Z,6.3
2022-11-09T09:01:26.903Z,6.3
2022-11-09T09:04:07.701Z,6.4
2022-11-09T09:09:08.449Z,6.5
2022-11-09T09:11:39.056Z,6.5
2022-11-09T09:14:09.648Z,6.6
2022-11-09T09:16:40.250Z,6.6
2022-11-09T09:19:20.844Z,6.6
2022-11-09T09:21:45.128Z,6.6
2022-11-09T09:24:15.723Z,6.6
2022-11-09T09:26:46.344Z,6.6
2022-11-09T09:29:17.012Z,6.6
2022-11-09T09:31:47.605Z,6.5
2022-11-09T09:34:28.535Z,6.4
2022-11-09T09:36:59.146Z,6.4
2022-11-09T09:39:29.739Z,6.5
2022-11-09T09:42:00.332Z,6.6
2022-11-09T09:44:30.927Z,6.7
2022-11-09T09:49:51.726Z,6.8
2022-11-09T09:52:22.515Z,6.8
2022-11-09T09:54:44.472Z,7.0
2022-11-09T09:57:15.083Z,7.1
2022-11-09T09:59:51.784Z,7.3
2022-11-09T10:02:22.385Z,7.4
2022-11-09T10:05:02.991Z,7.4
2022-11-09T10:07:33.566Z,7.5
2022-11-09T10:10:04.171Z,7.5
2022-11-09T10:15:04.983Z,7.5
2022-11-09T10:17:45.603Z,7.6
2022-11-09T10:20:16.183Z,7.7
2022-11-09T10:22:46.784Z,7.7
2022-11-09T10:25:23.992Z,7.6
2022-11-09T10:30:16.267Z,7.8
2022-11-09T10:32:56.851Z,7.8
2022-11-09T10:35:27.456Z,7.8
2022-11-09T10:37:58.056Z,7.8
2022-11-09T10:40:29.197Z,7.9
2022-11-09T10:42:59.776Z,8.0
2022-11-09T10:45:30.370Z,8.2
2022-11-09T10:48:10.993Z,8.3
2022-11-09T10:50:41.856Z,8.2
2022-11-09T10:53:12.459Z,8.2
2022-11-09T10:55:43.053Z,8.1
2022-11-09T10:58:13.633Z,8.1
2022-11-09T11:00:44.310Z,8.2
2022-11-09T11:03:25.393Z,8.1
2022-11-09T11:05:55.978Z,8.3
2022-11-09T11:11:06.822Z,8.3
2022-11-09T11:13:35.311Z,8.2
2022-11-09T11:16:15.912Z,8.3
2022-11-09T11:18:46.515Z,8.3
2022-11-09T11:21:18.903Z,8.3
2022-11-09T11:23:49.735Z,8.2
2022-11-09T11:26:20.328Z,8.2
2022-11-09T11:28:50.968Z,8.2
2022-11-09T11:31:31.609Z,8.0
2022-11-09T11:34:02.197Z,8.1
2022-11-09T11:36:33.748Z,8.0
2022-11-09T11:39:04.352Z,8.0
2022-11-09T11:41:28.341Z,8.0
2022-11-09T11:43:58.926Z,8.1
2022-11-09T11:46:39.533Z,8.2
2022-11-09T11:51:40.276Z,8.4
2022-11-09T11:54:10.864Z,8.4
2022-11-09T11:56:41.753Z,8.4
2022-11-09T11:59:12.361Z,8.4
2022-11-09T12:01:52.976Z,8.4
2022-11-09T12:04:26.872Z,8.4
2022-11-09T12:06:58.668Z,8.4
2022-11-09T12:09:29.441Z,8.5
2022-11-09T12:12:00.055Z,8.5
2022-11-09T12:14:30.656Z,8.5
2022-11-09T12:17:11.259Z,8.5
2022-11-09T12:19:41.859Z,8.6
2022-11-09T12:22:12.459Z,8.7
2022-11-09T12:24:43.122Z,8.8
2022-11-09T12:27:31.370Z,8.8
2022-11-09T12:32:22.794Z,8.8
2022-11-09T12:34:53.405Z,8.8
2022-11-09T12:37:24.005Z,8.8
2022-11-09T12:39:54.607Z,8.8
2022-11-09T12:42:25.333Z,8.8
2022-11-09T12:45:05.918Z,8.7
2022-11-09T12:47:36.527Z,8.7
2022-11-09T12:50:07.137Z,8.7
2022-11-09T12:52:37.722Z,8.6
2022-11-09T12:55:18.320Z,8.7
2022-11-09T12:57:48.912Z,8.8
2022-11-09T13:00:21.715Z,8.8
2022-11-09T13:02:52.319Z,8.8
2022-11-09T13:05:22.883Z,8.9
2022-11-09T13:07:53.487Z,9.0
2022-11-09T13:12:54.219Z,9.2
2022-11-09T13:15:34.847Z,9.2
2022-11-09T13:18:05.425Z,9.2
2022-11-09T13:20:55.105Z,9.3
2022-11-09T13:23:16.013Z,9.4
2022-11-09T13:25:39.350Z,9.4
2022-11-09T13:28:09.926Z,9.6
2022-11-09T13:30:50.536Z,9.6
2022-11-09T13:33:21.276Z,9.7
2022-11-09T13:35:52.330Z,9.7
2022-11-09T13:38:22.930Z,9.8
2022-11-09T13:40:53.522Z,9.8
2022-11-09T13:43:34.138Z,9.8
2022-11-09T13:46:04.732Z,9.9
2022-11-09T13:48:35.640Z,9.9
2022-11-09T13:53:36.396Z,10.0
2022-11-09T13:56:17.011Z,10.1
2022-11-09T13:58:48.150Z,10.0
2022-11-09T14:01:18.830Z,10.0
2022-11-09T14:03:50.919Z,10.0
2022-11-09T14:06:21.511Z,10.0
2022-11-09T14:08:52.375Z,9.9
2022-11-09T14:11:23.004Z,9.9
2022-11-09T14:14:03.869Z,9.9
2022-11-09T14:16:34.501Z,9.8
2022-11-09T14:19:05.092Z,9.8
2022-11-09T14:21:35.694Z,9.8
2022-11-09T14:24:06.293Z,9.8
2022-11-09T14:26:36.902Z,9.8
2022-11-09T14:29:17.526Z,9.8
2022-11-09T14:34:28.273Z,9.8
2022-11-09T14:37:01.860Z,9.7
2022-11-09T14:39:25.123Z,9.6
2022-11-09T14:41:55.737Z,9.6
2022-11-09T14:44:36.374Z,9.6
2022-11-09T14:47:06.972Z,9.5
2022-11-09T14:49:37.588Z,9.4
2022-11-09T14:52:08.208Z,9.4
2022-11-09T14:54:42.027Z,9.3
2022-11-09T14:57:25.351Z,9.2
2022-11-09T14:59:55.951Z,9.2
2022-11-09T15:02:26.588Z,9.2
2022-11-09T15:04:57.191Z,9.2
2022-11-09T15:07:27.778Z,9.1
2022-11-09T15:09:58.595Z,9.0
2022-11-09T15:15:09.355Z,8.9
2022-11-09T15:17:39.946Z,8.9
2022-11-09T15:20:10.580Z,8.8
2022-11-09T15:22:41.153Z,8.8
2022-11-09T15:25:11.776Z,8.8
2022-11-09T15:27:52.561Z,8.7
2022-11-09T15:30:23.169Z,8.6
2022-11-09T15:32:56.483Z,8.6
2022-11-09T15:35:27.099Z,8.5
2022-11-09T15:37:57.694Z,8.5
2022-11-09T15:40:28.736Z,8.4
2022-11-09T15:43:09.323Z,8.4
2022-11-09T15:45:39.888Z,8.4
2022-11-09T15:48:10.498Z,8.3
2022-11-09T15:50:41.583Z,8.2
2022-11-09T15:55:42.378Z,8.2
2022-11-09T15:58:23.366Z,8.2
2022-11-09T16:00:54.393Z,8.2
2022-11-09T16:03:25.103Z,8.3
2022-11-09T16:05:55.720Z,8.3
2022-11-09T16:08:26.322Z,8.3
2022-11-09T16:11:06.955Z,8.3
2022-11-09T16:13:37.550Z,8.2
2022-11-09T16:16:08.146Z,8.2
2022-11-09T16:18:38.756Z,8.2
2022-11-09T16:21:09.359Z,8.2
2022-11-09T16:23:39.940Z,8.2
2022-11-09T16:26:14.811Z,8.2
2022-11-09T16:28:45.440Z,8.1
2022-11-09T16:31:16.081Z,8.1
2022-11-09T16:36:20.765Z,8.0
2022-11-09T16:38:48.990Z,8.0
2022-11-09T16:41:29.684Z,8.0
2022-11-09T16:44:00.278Z,7.9
2022-11-09T16:46:30.854Z,7.9
2022-11-09T16:49:01.450Z,7.9
2022-11-09T16:51:32.053Z,8.0
2022-11-09T16:54:02.642Z,7.9
2022-11-09T16:56:43.224Z,7.9
2022-11-09T16:59:13.821Z,7.9
2022-11-09T17:01:44.499Z,7.9
2022-11-09T17:04:15.324Z,7.8
2022-11-09T17:06:45.946Z,7.8
2022-11-09T17:09:26.696Z,7.8
2022-11-09T17:11:57.311Z,7.9
2022-11-09T17:16:58.054Z,8.0
2022-11-09T17:19:32.905Z,8.0
2022-11-09T17:22:03.456Z,8.0
2022-11-09T17:24:44.090Z,8.0
2022-11-09T17:27:14.714Z,7.9
2022-11-09T17:29:45.333Z,7.9
2022-11-09T17:32:15.938Z,7.9
2022-11-09T17:34:46.544Z,7.9
2022-11-09T17:37:17.167Z,7.9
2022-11-09T17:39:57.899Z,8.0
2022-11-09T17:42:28.484Z,8.0
2022-11-09T17:44:59.077Z,7.9
2022-11-09T17:47:29.655Z,7.9
2022-11-09T17:50:00.269Z,7.9
2022-11-09T17:52:40.893Z,7.9
2022-11-09T17:57:41.624Z,7.8
2022-11-09T18:00:12.224Z,7.8
2022-11-09T18:02:42.959Z,7.8
2022-11-09T18:05:13.572Z,7.8
2022-11-09T18:07:54.162Z,7.8
2022-11-09T18:10:24.754Z,7.8
2022-11-09T18:12:55.352Z,7.8
2022-11-09T18:15:25.955Z,7.7
2022-11-09T18:17:56.613Z,7.7
2022-11-09T18:20:27.270Z,7.7
2022-11-09T18:23:07.865Z,7.7
2022-11-09T18:25:38.473Z,7.7
2022-11-09T18:28:09.074Z,7.7
2022-11-09T18:30:40.045Z,7.8
2022-11-09T18:38:31.326Z,7.9
2022-11-09T18:41:02.365Z,7.9
2022-11-09T18:43:32.951Z,7.9
2022-11-09T18:46:03.540Z,7.9
2022-11-09T18:48:34.129Z,7.8
2022-11-09T18:51:14.766Z,7.9
2022-11-09T18:53:45.376Z,7.8
2022-11-09T18:56:15.981Z,7.8
2022-11-09T18:58:46.587Z,7.8
2022-11-09T19:01:17.198Z,7.8
2022-11-09T19:03:47.847Z,7.8
2022-11-09T19:06:20.300Z,7.8
2022-11-09T19:08:50.980Z,7.8
2022-11-09T19:11:21.632Z,7.8
2022-11-09T19:13:52.262Z,7.8
2022-11-09T19:19:13.010Z,7.8
2022-11-09T19:21:43.692Z,7.8
2022-11-09T19:24:14.290Z,7.9
2022-11-09T19:26:44.891Z,8.0
2022-11-09T19:29:15.483Z,8.0
2022-11-09T19:31:46.083Z,8.0
2022-11-09T19:34:26.795Z,8.0
2022-11-09T19:36:57.404Z,8.0
2022-11-09T19:39:32.631Z,8.1
2022-11-09T19:41:54.283Z,8.1
2022-11-09T19:44:24.862Z,8.1
2022-11-09T19:46:55.446Z,8.1
2022-11-09T19:49:36.061Z,8.1
2022-11-09T19:52:06.670Z,8.1
2022-11-09T19:54:37.251Z,8.1
2022-11-09T19:59:38.017Z,8.1
2022-11-09T20:02:18.651Z,8.1
2022-11-09T20:04:49.300Z,8.1
2022-11-09T20:07:19.940Z,8.1
2022-11-09T20:09:50.548Z,8.1
2022-11-09T20:12:22.645Z,8.1
2022-11-09T20:14:53.254Z,8.1
2022-11-09T20:17:34.408Z,8.1
2022-11-09T20:20:04.975Z,8.1
2022-11-09T20:22:35.559Z,8.1
2022-11-09T20:25:06.163Z,8.1
2022-11-09T20:27:36.774Z,8.1
2022-11-09T20:30:07.342Z,8.1
2022-11-09T20:32:47.919Z,8.1
2022-11-09T20:35:18.526Z,8.1
2022-11-09T20:40:23.404Z,8.0
2022-11-09T20:42:53.990Z,8.0
2022-11-09T20:45:34.611Z,8.0
2022-11-09T20:48:19.252Z,8.0
2022-11-09T20:50:33.112Z,8.0
2022-11-09T20:53:03.711Z,8.0
2022-11-09T20:55:34.309Z,8.0
2022-11-09T20:58:04.909Z,8.0
2022-11-09T21:00:45.566Z,8.0
2022-11-09T21:03:16.445Z,8.0
2022-11-09T21:05:51.015Z,8.0
2022-11-09T21:08:23.293Z,8.0
2022-11-09T21:10:54.043Z,8.0
2022-11-09T21:13:24.686Z,8.0
2022-11-09T21:16:05.298Z,8.0
2022-11-09T21:21:06.060Z,8.0
2022-11-09T21:23:36.652Z,8.0
2022-11-09T21:26:07.307Z,8.0
2022-11-09T21:28:47.927Z,7.9
2022-11-09T21:31:18.520Z,8.0
2022-11-09T21:33:49.104Z,7.9
2022-11-09T21:36:19.692Z,8.0
2022-11-09T21:38:50.271Z,8.0
2022-11-09T21:41:20.881Z,8.0
2022-11-09T21:44:01.475Z,7.9
2022-11-09T21:46:32.081Z,7.9
2022-11-09T21:49:02.662Z,7.9
2022-11-09T21:51:33.265Z,7.9
2022-11-09T21:54:03.867Z,7.9
2022-11-09T21:56:34.478Z,7.9
2022-11-09T22:01:45.291Z,7.9
2022-11-09T22:04:16.064Z,7.9
2022-11-09T22:06:46.681Z,7.9
2022-11-09T22:09:17.414Z,7.9
2022-11-09T22:11:59.218Z,7.9
2022-11-09T22:14:29.834Z,7.9
